Terminal Aerodrome Forecast
Issued by NWS

Current Version | Previous Version | Text Only | Print | Product List | Glossary On
Versions: 1 2 3 4 5 6 7 8 9 10 11 12 13 14
000
FTUS45 KVEF 041120
TAFEED
TAF
KEED 041120Z 0412/0512 VRB05KT P6SM FEW100
     FM041800 20010G18KT P6SM SCT080 SCT250
     FM050200 20008KT P6SM SCT080 BKN120=

USA.gov is the U.S. government's official web portal to all federal, state and local government web resources and services.